sensor_id;sensor_type;location;lat;lon;timestamp;P1;durP1;ratioP1;P2;durP2;ratioP2
13799;SDS011;6971;50.028;9.258;2023-08-30T00:03:53;3.57;;;2.70;;
13799;SDS011;6971;50.028;9.258;2023-08-30T00:08:54;2.60;;;2.40;;
13799;SDS011;6971;50.028;9.258;2023-08-30T00:14:02;2.90;;;2.60;;
13799;SDS011;6971;50.028;9.258;2023-08-30T00:19:05;3.40;;;3.00;;
13799;SDS011;6971;50.028;9.258;2023-08-30T00:24:06;2.70;;;2.50;;
13799;SDS011;6971;50.028;9.258;2023-08-30T00:29:06;3.83;;;3.27;;
13799;SDS011;6971;50.028;9.258;2023-08-30T00:34:07;4.33;;;3.23;;
13799;SDS011;6971;50.028;9.258;2023-08-30T00:39:07;3.77;;;3.10;;
13799;SDS011;6971;50.028;9.258;2023-08-30T00:44:08;4.03;;;3.63;;
13799;SDS011;6971;50.028;9.258;2023-08-30T00:49:09;3.63;;;3.33;;
13799;SDS011;6971;50.028;9.258;2023-08-30T00:54:10;5.20;;;3.37;;
13799;SDS011;6971;50.028;9.258;2023-08-30T00:59:10;3.90;;;3.50;;
13799;SDS011;6971;50.028;9.258;2023-08-30T01:04:11;4.30;;;3.53;;
13799;SDS011;6971;50.028;9.258;2023-08-30T01:09:11;6.13;;;3.80;;
13799;SDS011;6971;50.028;9.258;2023-08-30T01:14:13;4.07;;;3.60;;
13799;SDS011;6971;50.028;9.258;2023-08-30T01:24:44;5.30;;;4.10;;
13799;SDS011;6971;50.028;9.258;2023-08-30T01:29:49;5.43;;;3.83;;
13799;SDS011;6971;50.028;9.258;2023-08-30T01:34:50;4.90;;;3.93;;
13799;SDS011;6971;50.028;9.258;2023-08-30T01:39:52;5.83;;;3.97;;
13799;SDS011;6971;50.028;9.258;2023-08-30T01:44:56;5.80;;;4.47;;
13799;SDS011;6971;50.028;9.258;2023-08-30T01:50:00;5.03;;;3.90;;
13799;SDS011;6971;50.028;9.258;2023-08-30T01:55:02;5.13;;;4.10;;
13799;SDS011;6971;50.028;9.258;2023-08-30T02:00:03;3.83;;;3.30;;
13799;SDS011;6971;50.028;9.258;2023-08-30T02:05:05;4.33;;;3.47;;
13799;SDS011;6971;50.028;9.258;2023-08-30T02:10:06;6.70;;;3.57;;
13799;SDS011;6971;50.028;9.258;2023-08-30T02:15:13;4.53;;;3.13;;
13799;SDS011;6971;50.028;9.258;2023-08-30T02:20:16;5.57;;;4.30;;
13799;SDS011;6971;50.028;9.258;2023-08-30T02:25:16;7.40;;;4.70;;
13799;SDS011;6971;50.028;9.258;2023-08-30T02:30:17;7.37;;;4.67;;
13799;SDS011;6971;50.028;9.258;2023-08-30T02:35:17;5.33;;;4.43;;
13799;SDS011;6971;50.028;9.258;2023-08-30T02:40:18;5.17;;;4.13;;
13799;SDS011;6971;50.028;9.258;2023-08-30T02:45:18;5.07;;;4.13;;
13799;SDS011;6971;50.028;9.258;2023-08-30T02:50:19;6.43;;;4.60;;
13799;SDS011;6971;50.028;9.258;2023-08-30T02:55:19;6.70;;;4.90;;
13799;SDS011;6971;50.028;9.258;2023-08-30T03:00:20;5.40;;;4.13;;
13799;SDS011;6971;50.028;9.258;2023-08-30T03:05:20;6.03;;;4.43;;
13799;SDS011;6971;50.028;9.258;2023-08-30T03:10:21;4.23;;;3.53;;
13799;SDS011;6971;50.028;9.258;2023-08-30T03:15:22;4.57;;;3.47;;
13799;SDS011;6971;50.028;9.258;2023-08-30T03:20:23;4.63;;;3.63;;
13799;SDS011;6971;50.028;9.258;2023-08-30T03:25:23;6.17;;;3.50;;
13799;SDS011;6971;50.028;9.258;2023-08-30T03:30:24;5.30;;;3.90;;
13799;SDS011;6971;50.028;9.258;2023-08-30T03:35:24;5.20;;;3.50;;
13799;SDS011;6971;50.028;9.258;2023-08-30T03:40:25;5.20;;;3.53;;
13799;SDS011;6971;50.028;9.258;2023-08-30T03:45:26;7.07;;;5.03;;
13799;SDS011;6971;50.028;9.258;2023-08-30T03:50:27;4.77;;;3.70;;
13799;SDS011;6971;50.028;9.258;2023-08-30T03:55:27;6.40;;;4.30;;
13799;SDS011;6971;50.028;9.258;2023-08-30T04:00:27;6.93;;;5.03;;
13799;SDS011;6971;50.028;9.258;2023-08-30T04:05:32;7.63;;;4.90;;
13799;SDS011;6971;50.028;9.258;2023-08-30T04:10:34;6.57;;;4.60;;
13799;SDS011;6971;50.028;9.258;2023-08-30T04:15:38;6.60;;;4.57;;
13799;SDS011;6971;50.028;9.258;2023-08-30T04:20:43;6.50;;;4.70;;
13799;SDS011;6971;50.028;9.258;2023-08-30T04:25:46;6.23;;;5.03;;
13799;SDS011;6971;50.028;9.258;2023-08-30T04:30:47;5.43;;;4.43;;
13799;SDS011;6971;50.028;9.258;2023-08-30T04:35:53;7.30;;;4.73;;
13799;SDS011;6971;50.028;9.258;2023-08-30T04:40:57;7.03;;;5.50;;
13799;SDS011;6971;50.028;9.258;2023-08-30T04:45:59;8.97;;;6.40;;
13799;SDS011;6971;50.028;9.258;2023-08-30T04:51:03;7.60;;;5.33;;
13799;SDS011;6971;50.028;9.258;2023-08-30T04:56:10;7.87;;;5.60;;
13799;SDS011;6971;50.028;9.258;2023-08-30T05:01:14;6.07;;;5.40;;
13799;SDS011;6971;50.028;9.258;2023-08-30T05:06:14;8.43;;;5.80;;
13799;SDS011;6971;50.028;9.258;2023-08-30T05:11:16;6.33;;;5.23;;
13799;SDS011;6971;50.028;9.258;2023-08-30T05:16:16;12.27;;;6.90;;
13799;SDS011;6971;50.028;9.258;2023-08-30T05:21:17;7.67;;;5.30;;
13799;SDS011;6971;50.028;9.258;2023-08-30T05:26:17;8.97;;;6.10;;
13799;SDS011;6971;50.028;9.258;2023-08-30T05:31:19;7.57;;;5.67;;
13799;SDS011;6971;50.028;9.258;2023-08-30T05:36:19;7.67;;;5.60;;
13799;SDS011;6971;50.028;9.258;2023-08-30T05:41:20;10.40;;;5.90;;
13799;SDS011;6971;50.028;9.258;2023-08-30T05:46:20;10.43;;;6.40;;
13799;SDS011;6971;50.028;9.258;2023-08-30T05:51:20;11.03;;;7.80;;
13799;SDS011;6971;50.028;9.258;2023-08-30T05:56:21;12.50;;;8.20;;
13799;SDS011;6971;50.028;9.258;2023-08-30T06:01:21;10.80;;;6.63;;
13799;SDS011;6971;50.028;9.258;2023-08-30T06:06:22;11.37;;;8.77;;
13799;SDS011;6971;50.028;9.258;2023-08-30T06:11:22;12.17;;;9.40;;
13799;SDS011;6971;50.028;9.258;2023-08-30T06:16:22;9.83;;;8.20;;
13799;SDS011;6971;50.028;9.258;2023-08-30T06:21:23;9.67;;;7.53;;
13799;SDS011;6971;50.028;9.258;2023-08-30T06:26:23;11.80;;;8.23;;
13799;SDS011;6971;50.028;9.258;2023-08-30T06:31:24;13.23;;;8.17;;
13799;SDS011;6971;50.028;9.258;2023-08-30T06:36:24;8.80;;;7.20;;
13799;SDS011;6971;50.028;9.258;2023-08-30T06:41:24;13.23;;;8.17;;
13799;SDS011;6971;50.028;9.258;2023-08-30T06:46:28;9.83;;;7.57;;
13799;SDS011;6971;50.028;9.258;2023-08-30T06:51:28;11.57;;;8.17;;
13799;SDS011;6971;50.028;9.258;2023-08-30T06:56:28;10.37;;;8.10;;
13799;SDS011;6971;50.028;9.258;2023-08-30T07:01:29;15.00;;;8.23;;
13799;SDS011;6971;50.028;9.258;2023-08-30T07:06:29;11.20;;;8.20;;
13799;SDS011;6971;50.028;9.258;2023-08-30T07:11:31;12.07;;;8.53;;
13799;SDS011;6971;50.028;9.258;2023-08-30T07:16:31;13.07;;;8.67;;
13799;SDS011;6971;50.028;9.258;2023-08-30T07:21:31;10.70;;;8.50;;
13799;SDS011;6971;50.028;9.258;2023-08-30T07:26:33;10.20;;;8.20;;
13799;SDS011;6971;50.028;9.258;2023-08-30T07:31:33;12.37;;;8.00;;
13799;SDS011;6971;50.028;9.258;2023-08-30T07:36:33;10.77;;;8.23;;
13799;SDS011;6971;50.028;9.258;2023-08-30T07:41:34;12.50;;;8.43;;
13799;SDS011;6971;50.028;9.258;2023-08-30T07:46:35;10.40;;;8.43;;
13799;SDS011;6971;50.028;9.258;2023-08-30T07:51:35;10.77;;;8.57;;
13799;SDS011;6971;50.028;9.258;2023-08-30T07:56:35;11.70;;;7.70;;
13799;SDS011;6971;50.028;9.258;2023-08-30T08:01:36;8.47;;;7.00;;
13799;SDS011;6971;50.028;9.258;2023-08-30T08:06:36;8.20;;;7.40;;
13799;SDS011;6971;50.028;9.258;2023-08-30T08:11:37;9.13;;;7.63;;
13799;SDS011;6971;50.028;9.258;2023-08-30T08:16:38;7.77;;;6.97;;
13799;SDS011;6971;50.028;9.258;2023-08-30T08:21:38;8.40;;;7.47;;
13799;SDS011;6971;50.028;9.258;2023-08-30T08:26:38;9.33;;;7.63;;
13799;SDS011;6971;50.028;9.258;2023-08-30T08:31:39;10.50;;;8.10;;
13799;SDS011;6971;50.028;9.258;2023-08-30T08:36:40;8.23;;;7.43;;
13799;SDS011;6971;50.028;9.258;2023-08-30T08:41:42;6.80;;;6.10;;
13799;SDS011;6971;50.028;9.258;2023-08-30T08:46:43;7.20;;;6.50;;
13799;SDS011;6971;50.028;9.258;2023-08-30T08:51:46;5.57;;;4.97;;
13799;SDS011;6971;50.028;9.258;2023-08-30T08:56:46;6.13;;;5.53;;
13799;SDS011;6971;50.028;9.258;2023-08-30T09:01:47;6.30;;;5.57;;
13799;SDS011;6971;50.028;9.258;2023-08-30T09:06:48;6.50;;;5.77;;
13799;SDS011;6971;50.028;9.258;2023-08-30T09:11:48;5.53;;;4.80;;
13799;SDS011;6971;50.028;9.258;2023-08-30T09:16:55;5.83;;;4.60;;
13799;SDS011;6971;50.028;9.258;2023-08-30T09:21:57;6.70;;;5.97;;
13799;SDS011;6971;50.028;9.258;2023-08-30T09:26:58;6.70;;;6.00;;
13799;SDS011;6971;50.028;9.258;2023-08-30T09:32:00;6.53;;;5.50;;
13799;SDS011;6971;50.028;9.258;2023-08-30T09:37:00;7.57;;;6.20;;
13799;SDS011;6971;50.028;9.258;2023-08-30T09:42:02;6.50;;;5.90;;
13799;SDS011;6971;50.028;9.258;2023-08-30T09:47:02;6.10;;;5.50;;
13799;SDS011;6971;50.028;9.258;2023-08-30T09:52:03;8.00;;;5.90;;
13799;SDS011;6971;50.028;9.258;2023-08-30T09:57:08;7.43;;;6.00;;
13799;SDS011;6971;50.028;9.258;2023-08-30T10:02:09;6.07;;;5.47;;
13799;SDS011;6971;50.028;9.258;2023-08-30T10:07:10;7.33;;;5.33;;
13799;SDS011;6971;50.028;9.258;2023-08-30T10:12:11;7.13;;;6.27;;
13799;SDS011;6971;50.028;9.258;2023-08-30T10:17:12;7.20;;;6.50;;
13799;SDS011;6971;50.028;9.258;2023-08-30T10:22:16;9.80;;;6.37;;
13799;SDS011;6971;50.028;9.258;2023-08-30T10:27:17;5.80;;;5.30;;
13799;SDS011;6971;50.028;9.258;2023-08-30T10:32:20;5.70;;;5.07;;
13799;SDS011;6971;50.028;9.258;2023-08-30T10:37:25;5.43;;;4.90;;
13799;SDS011;6971;50.028;9.258;2023-08-30T10:42:27;4.67;;;4.27;;
13799;SDS011;6971;50.028;9.258;2023-08-30T10:47:28;5.70;;;5.03;;
13799;SDS011;6971;50.028;9.258;2023-08-30T10:52:30;8.67;;;5.90;;
13799;SDS011;6971;50.028;9.258;2023-08-30T10:57:30;5.43;;;4.93;;
13799;SDS011;6971;50.028;9.258;2023-08-30T11:02:31;7.17;;;5.70;;
13799;SDS011;6971;50.028;9.258;2023-08-30T11:07:32;4.77;;;4.03;;
13799;SDS011;6971;50.028;9.258;2023-08-30T11:12:33;4.20;;;3.80;;
13799;SDS011;6971;50.028;9.258;2023-08-30T11:17:33;6.50;;;4.17;;
13799;SDS011;6971;50.028;9.258;2023-08-30T11:22:37;3.97;;;3.30;;
13799;SDS011;6971;50.028;9.258;2023-08-30T11:27:40;3.17;;;2.97;;
13799;SDS011;6971;50.028;9.258;2023-08-30T11:32:41;2.57;;;2.33;;
13799;SDS011;6971;50.028;9.258;2023-08-30T11:37:45;3.13;;;2.80;;
13799;SDS011;6971;50.028;9.258;2023-08-30T11:42:46;2.30;;;2.10;;
13799;SDS011;6971;50.028;9.258;2023-08-30T11:47:48;2.50;;;2.30;;
13799;SDS011;6971;50.028;9.258;2023-08-30T11:52:48;2.60;;;1.80;;
13799;SDS011;6971;50.028;9.258;2023-08-30T11:57:50;2.33;;;1.90;;
13799;SDS011;6971;50.028;9.258;2023-08-30T12:02:50;1.87;;;1.77;;
13799;SDS011;6971;50.028;9.258;2023-08-30T12:07:51;1.80;;;1.70;;
13799;SDS011;6971;50.028;9.258;2023-08-30T12:12:51;3.10;;;2.10;;
13799;SDS011;6971;50.028;9.258;2023-08-30T12:17:52;2.20;;;2.00;;
13799;SDS011;6971;50.028;9.258;2023-08-30T12:22:52;2.13;;;1.93;;
13799;SDS011;6971;50.028;9.258;2023-08-30T12:27:53;2.00;;;1.90;;
13799;SDS011;6971;50.028;9.258;2023-08-30T12:32:59;2.63;;;2.43;;
13799;SDS011;6971;50.028;9.258;2023-08-30T12:38:02;2.30;;;2.13;;
13799;SDS011;6971;50.028;9.258;2023-08-30T12:43:04;1.90;;;1.80;;
13799;SDS011;6971;50.028;9.258;2023-08-30T12:48:04;2.60;;;2.40;;
13799;SDS011;6971;50.028;9.258;2023-08-30T12:53:06;2.73;;;2.30;;
13799;SDS011;6971;50.028;9.258;2023-08-30T12:58:07;3.00;;;2.40;;
13799;SDS011;6971;50.028;9.258;2023-08-30T13:03:08;2.67;;;2.40;;
13799;SDS011;6971;50.028;9.258;2023-08-30T13:08:08;4.07;;;2.63;;
13799;SDS011;6971;50.028;9.258;2023-08-30T13:13:09;2.70;;;2.00;;
13799;SDS011;6971;50.028;9.258;2023-08-30T13:18:09;2.20;;;2.00;;
13799;SDS011;6971;50.028;9.258;2023-08-30T13:23:09;2.73;;;2.23;;
13799;SDS011;6971;50.028;9.258;2023-08-30T13:28:10;2.63;;;2.33;;
13799;SDS011;6971;50.028;9.258;2023-08-30T13:33:10;2.13;;;2.03;;
13799;SDS011;6971;50.028;9.258;2023-08-30T13:38:11;2.10;;;2.00;;
13799;SDS011;6971;50.028;9.258;2023-08-30T13:43:11;2.63;;;2.27;;
13799;SDS011;6971;50.028;9.258;2023-08-30T13:48:12;2.30;;;2.10;;
13799;SDS011;6971;50.028;9.258;2023-08-30T13:53:12;2.60;;;2.30;;
13799;SDS011;6971;50.028;9.258;2023-08-30T13:58:13;2.37;;;2.17;;
13799;SDS011;6971;50.028;9.258;2023-08-30T14:03:13;2.40;;;2.20;;
13799;SDS011;6971;50.028;9.258;2023-08-30T14:08:15;2.40;;;2.17;;
13799;SDS011;6971;50.028;9.258;2023-08-30T14:13:16;2.00;;;1.90;;
13799;SDS011;6971;50.028;9.258;2023-08-30T14:18:16;2.50;;;2.10;;
13799;SDS011;6971;50.028;9.258;2023-08-30T14:23:17;2.27;;;2.07;;
13799;SDS011;6971;50.028;9.258;2023-08-30T14:28:18;4.07;;;2.50;;
13799;SDS011;6971;50.028;9.258;2023-08-30T14:33:18;2.83;;;2.33;;
13799;SDS011;6971;50.028;9.258;2023-08-30T14:38:19;2.00;;;1.90;;
13799;SDS011;6971;50.028;9.258;2023-08-30T14:43:19;2.30;;;2.10;;
13799;SDS011;6971;50.028;9.258;2023-08-30T14:48:20;2.27;;;2.07;;
13799;SDS011;6971;50.028;9.258;2023-08-30T14:53:20;2.33;;;2.10;;
13799;SDS011;6971;50.028;9.258;2023-08-30T14:58:21;2.37;;;2.17;;
13799;SDS011;6971;50.028;9.258;2023-08-30T15:03:22;2.40;;;2.20;;
13799;SDS011;6971;50.028;9.258;2023-08-30T15:08:22;3.60;;;2.53;;
13799;SDS011;6971;50.028;9.258;2023-08-30T15:13:24;3.27;;;2.20;;
13799;SDS011;6971;50.028;9.258;2023-08-30T15:18:24;2.40;;;2.20;;
13799;SDS011;6971;50.028;9.258;2023-08-30T15:23:25;2.40;;;2.20;;
13799;SDS011;6971;50.028;9.258;2023-08-30T15:28:25;2.87;;;2.53;;
13799;SDS011;6971;50.028;9.258;2023-08-30T15:33:26;2.63;;;2.40;;
13799;SDS011;6971;50.028;9.258;2023-08-30T15:38:26;2.43;;;2.17;;
13799;SDS011;6971;50.028;9.258;2023-08-30T15:43:27;2.63;;;2.30;;
13799;SDS011;6971;50.028;9.258;2023-08-30T15:48:27;2.33;;;2.13;;
13799;SDS011;6971;50.028;9.258;2023-08-30T15:53:28;2.23;;;2.03;;
13799;SDS011;6971;50.028;9.258;2023-08-30T15:58:28;2.60;;;2.33;;
13799;SDS011;6971;50.028;9.258;2023-08-30T16:03:29;3.83;;;2.20;;
13799;SDS011;6971;50.028;9.258;2023-08-30T16:08:29;5.17;;;2.70;;
13799;SDS011;6971;50.028;9.258;2023-08-30T16:13:29;2.43;;;2.13;;
13799;SDS011;6971;50.028;9.258;2023-08-30T16:18:30;2.80;;;2.30;;
13799;SDS011;6971;50.028;9.258;2023-08-30T16:23:31;2.93;;;2.30;;
13799;SDS011;6971;50.028;9.258;2023-08-30T16:28:32;2.60;;;1.80;;
13799;SDS011;6971;50.028;9.258;2023-08-30T16:33:32;2.40;;;2.20;;
13799;SDS011;6971;50.028;9.258;2023-08-30T16:38:33;4.63;;;1.97;;
13799;SDS011;6971;50.028;9.258;2023-08-30T16:43:34;2.33;;;2.13;;
13799;SDS011;6971;50.028;9.258;2023-08-30T16:48:34;2.43;;;2.23;;
13799;SDS011;6971;50.028;9.258;2023-08-30T16:53:34;3.83;;;3.13;;
13799;SDS011;6971;50.028;9.258;2023-08-30T16:58:35;2.90;;;2.60;;
13799;SDS011;6971;50.028;9.258;2023-08-30T17:03:35;3.23;;;2.57;;
13799;SDS011;6971;50.028;9.258;2023-08-30T17:08:36;2.40;;;2.20;;
13799;SDS011;6971;50.028;9.258;2023-08-30T17:13:36;2.67;;;2.33;;
13799;SDS011;6971;50.028;9.258;2023-08-30T17:18:37;2.33;;;2.07;;
13799;SDS011;6971;50.028;9.258;2023-08-30T17:23:38;2.67;;;2.10;;
13799;SDS011;6971;50.028;9.258;2023-08-30T17:28:39;2.60;;;2.10;;
13799;SDS011;6971;50.028;9.258;2023-08-30T17:33:39;2.30;;;2.00;;
13799;SDS011;6971;50.028;9.258;2023-08-30T17:38:40;2.57;;;2.17;;
13799;SDS011;6971;50.028;9.258;2023-08-30T17:43:40;2.70;;;1.90;;
13799;SDS011;6971;50.028;9.258;2023-08-30T17:48:40;11.03;;;2.50;;
13799;SDS011;6971;50.028;9.258;2023-08-30T17:53:43;2.10;;;1.90;;
13799;SDS011;6971;50.028;9.258;2023-08-30T17:58:48;2.90;;;2.60;;
13799;SDS011;6971;50.028;9.258;2023-08-30T18:03:49;2.77;;;2.00;;
13799;SDS011;6971;50.028;9.258;2023-08-30T18:08:50;2.97;;;2.03;;
13799;SDS011;6971;50.028;9.258;2023-08-30T18:13:50;2.57;;;1.90;;
13799;SDS011;6971;50.028;9.258;2023-08-30T18:18:51;3.00;;;2.37;;
13799;SDS011;6971;50.028;9.258;2023-08-30T18:24:11;2.80;;;2.10;;
13799;SDS011;6971;50.028;9.258;2023-08-30T18:29:14;2.83;;;1.63;;
13799;SDS011;6971;50.028;9.258;2023-08-30T18:34:15;2.20;;;1.70;;
13799;SDS011;6971;50.028;9.258;2023-08-30T18:39:16;2.73;;;1.60;;
13799;SDS011;6971;50.028;9.258;2023-08-30T18:44:17;3.47;;;2.00;;
13799;SDS011;6971;50.028;9.258;2023-08-30T18:49:17;2.63;;;2.00;;
13799;SDS011;6971;50.028;9.258;2023-08-30T18:54:17;2.10;;;2.00;;
13799;SDS011;6971;50.028;9.258;2023-08-30T18:59:18;1.67;;;1.30;;
13799;SDS011;6971;50.028;9.258;2023-08-30T19:04:18;1.90;;;1.20;;
13799;SDS011;6971;50.028;9.258;2023-08-30T19:09:19;1.10;;;1.00;;
13799;SDS011;6971;50.028;9.258;2023-08-30T19:14:19;2.13;;;1.50;;
13799;SDS011;6971;50.028;9.258;2023-08-30T19:19:20;1.33;;;1.00;;
13799;SDS011;6971;50.028;9.258;2023-08-30T19:24:20;1.63;;;1.10;;
13799;SDS011;6971;50.028;9.258;2023-08-30T19:29:21;1.07;;;0.93;;
13799;SDS011;6971;50.028;9.258;2023-08-30T19:34:21;1.77;;;0.90;;
13799;SDS011;6971;50.028;9.258;2023-08-30T19:39:23;1.60;;;1.10;;
13799;SDS011;6971;50.028;9.258;2023-08-30T19:44:23;1.40;;;1.20;;
13799;SDS011;6971;50.028;9.258;2023-08-30T19:49:24;1.67;;;1.53;;
13799;SDS011;6971;50.028;9.258;2023-08-30T19:54:24;2.57;;;1.47;;
13799;SDS011;6971;50.028;9.258;2023-08-30T19:59:24;1.70;;;1.60;;
13799;SDS011;6971;50.028;9.258;2023-08-30T20:04:25;2.63;;;1.47;;
13799;SDS011;6971;50.028;9.258;2023-08-30T20:09:25;2.53;;;1.90;;
13799;SDS011;6971;50.028;9.258;2023-08-30T20:14:25;2.23;;;2.03;;
13799;SDS011;6971;50.028;9.258;2023-08-30T20:19:26;2.20;;;1.90;;
13799;SDS011;6971;50.028;9.258;2023-08-30T20:24:26;2.40;;;1.90;;
13799;SDS011;6971;50.028;9.258;2023-08-30T20:29:27;2.47;;;1.63;;
13799;SDS011;6971;50.028;9.258;2023-08-30T20:34:27;2.13;;;2.00;;
13799;SDS011;6971;50.028;9.258;2023-08-30T20:39:28;3.03;;;2.23;;
13799;SDS011;6971;50.028;9.258;2023-08-30T20:44:28;2.57;;;2.20;;
13799;SDS011;6971;50.028;9.258;2023-08-30T20:49:29;4.17;;;3.73;;
13799;SDS011;6971;50.028;9.258;2023-08-30T20:54:29;2.97;;;2.47;;
13799;SDS011;6971;50.028;9.258;2023-08-30T20:59:29;2.93;;;2.23;;
13799;SDS011;6971;50.028;9.258;2023-08-30T21:04:30;3.00;;;2.37;;
13799;SDS011;6971;50.028;9.258;2023-08-30T21:09:30;2.77;;;2.40;;
13799;SDS011;6971;50.028;9.258;2023-08-30T21:14:32;2.70;;;2.50;;
13799;SDS011;6971;50.028;9.258;2023-08-30T21:19:32;3.20;;;2.60;;
13799;SDS011;6971;50.028;9.258;2023-08-30T21:24:32;4.10;;;3.43;;
13799;SDS011;6971;50.028;9.258;2023-08-30T21:29:33;2.30;;;2.03;;
13799;SDS011;6971;50.028;9.258;2023-08-30T21:34:33;2.90;;;2.60;;
13799;SDS011;6971;50.028;9.258;2023-08-30T21:39:34;3.60;;;2.47;;
13799;SDS011;6971;50.028;9.258;2023-08-30T21:44:34;3.40;;;2.43;;
13799;SDS011;6971;50.028;9.258;2023-08-30T21:49:34;2.60;;;2.10;;
13799;SDS011;6971;50.028;9.258;2023-08-30T21:54:35;2.53;;;2.27;;
13799;SDS011;6971;50.028;9.258;2023-08-30T21:59:35;4.23;;;2.50;;
13799;SDS011;6971;50.028;9.258;2023-08-30T22:04:36;3.43;;;2.40;;
13799;SDS011;6971;50.028;9.258;2023-08-30T22:09:36;2.70;;;2.50;;
13799;SDS011;6971;50.028;9.258;2023-08-30T22:14:37;3.87;;;3.00;;
13799;SDS011;6971;50.028;9.258;2023-08-30T22:19:38;5.47;;;2.83;;
13799;SDS011;6971;50.028;9.258;2023-08-30T22:24:38;2.47;;;2.27;;
13799;SDS011;6971;50.028;9.258;2023-08-30T22:29:39;2.77;;;2.47;;
13799;SDS011;6971;50.028;9.258;2023-08-30T22:34:40;3.00;;;2.43;;
13799;SDS011;6971;50.028;9.258;2023-08-30T22:39:40;2.83;;;2.60;;
13799;SDS011;6971;50.028;9.258;2023-08-30T22:44:41;4.27;;;2.90;;
13799;SDS011;6971;50.028;9.258;2023-08-30T22:49:41;3.87;;;3.03;;
13799;SDS011;6971;50.028;9.258;2023-08-30T22:54:42;4.10;;;3.30;;
13799;SDS011;6971;50.028;9.258;2023-08-30T22:59:43;3.67;;;3.10;;
13799;SDS011;6971;50.028;9.258;2023-08-30T23:04:44;5.23;;;3.90;;
13799;SDS011;6971;50.028;9.258;2023-08-30T23:09:44;3.30;;;2.90;;
13799;SDS011;6971;50.028;9.258;2023-08-30T23:14:44;3.60;;;3.10;;
13799;SDS011;6971;50.028;9.258;2023-08-30T23:19:45;4.67;;;3.73;;
13799;SDS011;6971;50.028;9.258;2023-08-30T23:24:45;4.07;;;3.40;;
13799;SDS011;6971;50.028;9.258;2023-08-30T23:29:46;6.50;;;3.50;;
13799;SDS011;6971;50.028;9.258;2023-08-30T23:34:46;5.07;;;4.10;;
13799;SDS011;6971;50.028;9.258;2023-08-30T23:39:47;4.23;;;3.43;;
13799;SDS011;6971;50.028;9.258;2023-08-30T23:44:48;4.60;;;3.40;;
13799;SDS011;6971;50.028;9.258;2023-08-30T23:49:49;3.70;;;3.30;;
13799;SDS011;6971;50.028;9.258;2023-08-30T23:54:49;3.97;;;3.23;;
13799;SDS011;6971;50.028;9.258;2023-08-30T23:59:49;3.30;;;3.00;;
